createdAt,value
2017-08-16T00:00:06.324Z,0
2017-08-16T00:00:46.909Z,0
2017-08-16T00:01:27.496Z,0
2017-08-16T00:02:08.076Z,0
2017-08-16T00:02:48.654Z,0
2017-08-16T00:03:29.225Z,0
2017-08-16T00:04:09.798Z,0
2017-08-16T00:04:50.377Z,0
2017-08-16T00:05:30.958Z,0
2017-08-16T00:06:11.533Z,0
2017-08-16T00:06:52.103Z,0
2017-08-16T00:07:32.679Z,0
2017-08-16T00:08:13.245Z,0
2017-08-16T00:08:53.821Z,0
2017-08-16T00:09:34.392Z,0
2017-08-16T00:10:14.975Z,0
2017-08-16T00:10:55.575Z,0
2017-08-16T00:11:36.140Z,0
2017-08-16T00:12:16.729Z,0
2017-08-16T00:12:57.320Z,0
2017-08-16T00:13:37.901Z,0
2017-08-16T00:14:18.486Z,0
2017-08-16T00:14:59.065Z,0
2017-08-16T00:15:39.639Z,0
2017-08-16T00:16:20.212Z,0
2017-08-16T00:17:00.786Z,0
2017-08-16T00:17:41.376Z,0
2017-08-16T00:18:21.955Z,0
2017-08-16T00:19:02.540Z,0
2017-08-16T00:19:43.119Z,0
2017-08-16T00:20:23.705Z,0
2017-08-16T00:21:04.276Z,0
2017-08-16T00:21:44.843Z,0
2017-08-16T00:22:25.422Z,0
2017-08-16T00:23:05.987Z,0
2017-08-16T00:23:46.560Z,0
2017-08-16T00:24:27.124Z,0
2017-08-16T00:25:07.706Z,0
2017-08-16T00:25:48.301Z,0
2017-08-16T00:26:35.481Z,0
2017-08-16T00:27:16.075Z,0
2017-08-16T00:27:56.642Z,0
2017-08-16T00:28:37.235Z,0
2017-08-16T00:29:17.822Z,0
2017-08-16T00:29:58.395Z,0
2017-08-16T00:30:38.962Z,0
2017-08-16T00:31:19.549Z,0
2017-08-16T00:32:00.131Z,0
2017-08-16T00:32:40.703Z,0
2017-08-16T00:33:21.313Z,0
2017-08-16T00:34:01.886Z,0
2017-08-16T00:34:42.453Z,0
2017-08-16T00:35:23.029Z,0
2017-08-16T00:36:03.604Z,0
2017-08-16T00:36:44.199Z,0
2017-08-16T00:37:24.740Z,0
2017-08-16T00:38:05.311Z,0
2017-08-16T00:38:45.887Z,0
2017-08-16T00:39:26.493Z,0
2017-08-16T00:40:07.062Z,0
2017-08-16T00:40:47.659Z,0
2017-08-16T00:41:28.229Z,0
2017-08-16T00:42:08.811Z,0
2017-08-16T00:42:49.387Z,0
2017-08-16T00:43:29.966Z,0
2017-08-16T00:44:10.546Z,0
2017-08-16T00:44:51.120Z,0
2017-08-16T00:45:31.687Z,0
2017-08-16T00:46:12.259Z,0
2017-08-16T00:46:52.839Z,0
2017-08-16T00:47:33.412Z,0
2017-08-16T00:48:13.979Z,0
2017-08-16T00:48:54.547Z,0
2017-08-16T00:49:35.121Z,0
2017-08-16T00:50:15.690Z,0
2017-08-16T00:50:56.267Z,0
2017-08-16T00:51:36.849Z,0
2017-08-16T00:52:17.422Z,0
2017-08-16T00:52:57.983Z,0
2017-08-16T00:53:38.549Z,0
2017-08-16T00:54:19.116Z,0
2017-08-16T00:54:59.705Z,0
2017-08-16T00:55:40.279Z,0
2017-08-16T00:56:20.849Z,0
2017-08-16T00:57:01.437Z,0
2017-08-16T00:57:42.002Z,0
2017-08-16T00:58:22.577Z,0
2017-08-16T00:59:03.158Z,0
2017-08-16T00:59:43.742Z,0
2017-08-16T01:00:24.317Z,0
2017-08-16T01:01:04.889Z,0
2017-08-16T01:01:45.457Z,0
2017-08-16T01:02:26.052Z,0
2017-08-16T01:03:06.622Z,0
2017-08-16T01:03:47.187Z,0
2017-08-16T01:04:27.769Z,0
2017-08-16T01:05:08.354Z,0
2017-08-16T01:05:48.922Z,0
2017-08-16T01:06:29.502Z,0
2017-08-16T01:07:10.077Z,0
2017-08-16T01:07:50.655Z,0
2017-08-16T01:08:31.232Z,0
2017-08-16T01:09:11.813Z,0
2017-08-16T01:09:52.392Z,0
2017-08-16T01:10:32.959Z,0
2017-08-16T01:11:13.542Z,0
2017-08-16T01:11:54.105Z,0
2017-08-16T01:12:34.683Z,0
2017-08-16T01:13:15.271Z,0
2017-08-16T01:13:55.836Z,0
2017-08-16T01:14:36.419Z,0
2017-08-16T01:15:17.029Z,0
2017-08-16T01:15:57.597Z,0
2017-08-16T01:16:38.172Z,0
2017-08-16T01:17:18.746Z,0
2017-08-16T01:17:59.317Z,0
2017-08-16T01:18:39.883Z,0
2017-08-16T01:19:20.472Z,0
2017-08-16T01:20:01.047Z,0
2017-08-16T01:20:41.632Z,0
2017-08-16T01:21:22.199Z,0
2017-08-16T01:22:02.820Z,0
2017-08-16T01:22:43.391Z,0
2017-08-16T01:23:23.966Z,0
2017-08-16T01:24:04.556Z,0
2017-08-16T01:24:45.120Z,0
2017-08-16T01:25:25.704Z,0
2017-08-16T01:26:06.274Z,0
2017-08-16T01:26:46.854Z,0
2017-08-16T01:27:27.438Z,0
2017-08-16T01:28:08.008Z,0
2017-08-16T01:28:48.571Z,0
2017-08-16T01:29:29.152Z,0
2017-08-16T01:30:09.722Z,0
2017-08-16T01:30:50.291Z,0
2017-08-16T01:31:30.860Z,0
2017-08-16T01:32:11.440Z,0
2017-08-16T01:32:52.015Z,0
2017-08-16T01:33:32.592Z,0
2017-08-16T01:34:13.176Z,0
2017-08-16T01:34:53.746Z,0
2017-08-16T01:35:34.314Z,0
2017-08-16T01:36:14.872Z,0
2017-08-16T01:36:55.469Z,0
2017-08-16T01:37:36.065Z,0
2017-08-16T01:38:16.648Z,0
2017-08-16T01:38:57.216Z,0
2017-08-16T01:39:37.790Z,0
2017-08-16T01:40:18.364Z,0
2017-08-16T01:40:58.934Z,0
2017-08-16T01:41:39.513Z,0
2017-08-16T01:42:20.111Z,0
2017-08-16T01:43:00.684Z,0
2017-08-16T01:43:41.274Z,0
2017-08-16T01:44:21.845Z,0
2017-08-16T01:45:02.414Z,0
2017-08-16T01:45:43.002Z,0
2017-08-16T01:46:23.577Z,0
2017-08-16T01:47:04.150Z,0
2017-08-16T01:47:44.743Z,0
2017-08-16T01:48:25.338Z,0
2017-08-16T01:49:05.908Z,0
2017-08-16T01:49:46.481Z,0
2017-08-16T01:50:27.055Z,0
2017-08-16T01:51:07.627Z,0
2017-08-16T01:51:48.198Z,0
2017-08-16T01:52:28.801Z,0
2017-08-16T01:53:09.408Z,0
2017-08-16T01:53:49.968Z,0
2017-08-16T01:54:30.573Z,0
2017-08-16T01:55:11.165Z,0
2017-08-16T01:55:51.748Z,0
2017-08-16T01:56:32.325Z,0
2017-08-16T01:57:12.925Z,0
2017-08-16T01:57:53.501Z,0
2017-08-16T01:58:34.093Z,0
2017-08-16T01:59:14.665Z,0
2017-08-16T01:59:55.231Z,0
2017-08-16T02:00:35.808Z,0
2017-08-16T02:01:16.375Z,0
2017-08-16T02:01:56.988Z,0
2017-08-16T02:02:37.563Z,0
2017-08-16T02:03:18.147Z,0
2017-08-16T02:03:58.732Z,0
2017-08-16T02:04:39.313Z,0
2017-08-16T02:05:19.882Z,0
2017-08-16T02:06:00.454Z,0
2017-08-16T02:06:41.027Z,0
2017-08-16T02:07:21.588Z,0
2017-08-16T02:08:02.159Z,0
2017-08-16T02:08:42.742Z,0
2017-08-16T02:09:23.320Z,0
2017-08-16T02:10:03.903Z,0
2017-08-16T02:10:44.494Z,0
2017-08-16T02:11:25.085Z,0
2017-08-16T02:12:05.652Z,0
2017-08-16T02:12:46.231Z,0
2017-08-16T02:13:26.796Z,0
2017-08-16T02:14:07.376Z,0
2017-08-16T02:14:47.947Z,0
2017-08-16T02:15:28.524Z,0
2017-08-16T02:16:09.104Z,0
2017-08-16T02:16:49.692Z,0
2017-08-16T02:17:30.260Z,0
2017-08-16T02:18:10.836Z,0
2017-08-16T02:18:51.409Z,0
2017-08-16T02:19:32.019Z,0
2017-08-16T02:20:12.587Z,0
2017-08-16T02:20:53.179Z,0
2017-08-16T02:21:33.755Z,0
2017-08-16T02:22:14.342Z,0
2017-08-16T02:22:54.910Z,0
2017-08-16T02:23:35.484Z,0
2017-08-16T02:24:16.061Z,0
2017-08-16T02:24:56.647Z,0
2017-08-16T02:25:37.222Z,0
2017-08-16T02:26:17.815Z,0
2017-08-16T02:26:58.379Z,0
2017-08-16T02:27:38.961Z,0
2017-08-16T02:28:19.526Z,0
2017-08-16T02:29:00.086Z,0
2017-08-16T02:29:40.664Z,0
2017-08-16T02:30:21.233Z,0
2017-08-16T02:31:01.808Z,0
2017-08-16T02:31:42.377Z,0
2017-08-16T02:32:22.944Z,0
2017-08-16T02:33:03.530Z,0
2017-08-16T02:33:44.112Z,0
2017-08-16T02:34:24.688Z,0
2017-08-16T02:35:05.263Z,0
2017-08-16T02:35:45.847Z,0
2017-08-16T02:36:26.418Z,0
2017-08-16T02:37:06.991Z,0
2017-08-16T02:37:47.584Z,0
2017-08-16T02:38:28.151Z,0
2017-08-16T02:39:08.725Z,0
2017-08-16T02:39:49.316Z,0
2017-08-16T02:40:29.900Z,0
2017-08-16T02:41:10.475Z,0
2017-08-16T02:41:51.054Z,0
2017-08-16T02:42:31.638Z,0
2017-08-16T02:43:12.233Z,0
2017-08-16T02:43:52.805Z,0
2017-08-16T02:44:33.375Z,0
2017-08-16T02:45:13.964Z,0
2017-08-16T02:45:54.535Z,0
2017-08-16T02:46:35.104Z,0
2017-08-16T02:47:15.698Z,0
2017-08-16T02:47:56.316Z,0
2017-08-16T02:48:36.874Z,0
2017-08-16T02:49:17.475Z,0
2017-08-16T02:49:58.061Z,0
2017-08-16T02:50:38.618Z,0
2017-08-16T02:51:19.208Z,0
2017-08-16T02:51:59.778Z,0
2017-08-16T02:52:40.371Z,0
2017-08-16T02:53:20.952Z,0
2017-08-16T02:54:01.528Z,0
2017-08-16T02:54:42.092Z,0
2017-08-16T02:55:22.661Z,0
2017-08-16T02:56:03.218Z,0
2017-08-16T02:56:43.804Z,0
2017-08-16T02:57:24.380Z,0
2017-08-16T02:58:04.952Z,0
2017-08-16T02:58:45.522Z,0
2017-08-16T02:59:26.095Z,0
2017-08-16T03:00:06.701Z,0
2017-08-16T03:00:47.276Z,0
2017-08-16T03:01:27.842Z,0
2017-08-16T03:02:08.418Z,0
2017-08-16T03:02:49.001Z,0
2017-08-16T03:03:29.560Z,0
2017-08-16T03:04:10.139Z,0
2017-08-16T03:04:50.728Z,0
2017-08-16T03:05:31.320Z,0
2017-08-16T03:06:11.970Z,0
2017-08-16T03:06:52.561Z,0
2017-08-16T03:07:33.134Z,0
2017-08-16T03:08:13.749Z,0
2017-08-16T03:08:54.355Z,0
2017-08-16T03:09:34.943Z,0
2017-08-16T03:10:15.528Z,0
2017-08-16T03:10:56.097Z,0
2017-08-16T03:11:36.669Z,0
2017-08-16T03:12:17.264Z,0
2017-08-16T03:12:57.865Z,0
2017-08-16T03:13:38.429Z,0
2017-08-16T03:14:19.004Z,0
2017-08-16T03:14:59.581Z,0
2017-08-16T03:15:40.176Z,0
2017-08-16T03:16:20.747Z,0
2017-08-16T03:17:01.318Z,0
2017-08-16T03:17:41.918Z,0
2017-08-16T03:18:22.520Z,0
2017-08-16T03:19:03.129Z,4
2017-08-16T03:19:43.711Z,4
2017-08-16T03:20:24.298Z,4
2017-08-16T03:21:04.865Z,0
2017-08-16T03:21:45.445Z,0
2017-08-16T03:22:26.025Z,4
2017-08-16T03:23:06.623Z,4
2017-08-16T03:23:47.218Z,4
2017-08-16T03:24:27.787Z,4
2017-08-16T03:25:08.374Z,4
2017-08-16T03:25:48.956Z,4
2017-08-16T03:26:29.537Z,4
2017-08-16T03:27:10.105Z,8
2017-08-16T03:27:50.686Z,8
2017-08-16T03:28:31.265Z,8
2017-08-16T03:29:11.867Z,8
2017-08-16T03:29:52.440Z,8
2017-08-16T03:30:33.040Z,8
2017-08-16T03:31:13.646Z,8
2017-08-16T03:31:54.226Z,12
2017-08-16T03:32:34.812Z,12
2017-08-16T03:33:15.393Z,12
2017-08-16T03:33:55.972Z,12
2017-08-16T03:34:36.536Z,12
2017-08-16T03:35:17.151Z,16
2017-08-16T03:35:57.739Z,16
2017-08-16T03:36:38.332Z,16
2017-08-16T03:37:18.909Z,16
2017-08-16T03:37:59.475Z,20
2017-08-16T03:38:40.045Z,20
2017-08-16T03:39:20.626Z,24
2017-08-16T03:40:01.208Z,24
2017-08-16T03:40:41.764Z,24
2017-08-16T03:41:22.375Z,24
2017-08-16T03:42:02.960Z,32
2017-08-16T03:42:43.532Z,28
2017-08-16T03:43:24.111Z,32
2017-08-16T03:44:04.681Z,36
2017-08-16T03:44:45.246Z,40
2017-08-16T03:45:25.814Z,40
2017-08-16T03:46:06.429Z,40
2017-08-16T03:46:47.025Z,40
2017-08-16T03:47:27.616Z,44
2017-08-16T03:48:08.189Z,44
2017-08-16T03:48:48.758Z,40
2017-08-16T03:49:29.352Z,40
2017-08-16T03:50:09.929Z,44
2017-08-16T03:50:50.512Z,44
2017-08-16T03:51:31.099Z,44
2017-08-16T03:52:11.688Z,44
2017-08-16T03:52:52.248Z,48
2017-08-16T03:53:32.816Z,48
2017-08-16T03:54:13.377Z,48
2017-08-16T03:54:53.963Z,52
2017-08-16T03:55:34.533Z,52
2017-08-16T03:56:15.104Z,56
2017-08-16T03:56:55.682Z,56
2017-08-16T03:57:36.259Z,60
2017-08-16T03:58:16.834Z,64
2017-08-16T03:58:57.453Z,68
2017-08-16T03:59:38.045Z,68
2017-08-16T04:00:18.630Z,76
2017-08-16T04:00:59.217Z,76
2017-08-16T04:01:39.819Z,80
2017-08-16T04:02:20.397Z,84
2017-08-16T04:03:00.977Z,88
2017-08-16T04:03:41.572Z,92
2017-08-16T04:04:22.150Z,96
2017-08-16T04:05:02.727Z,104
2017-08-16T04:05:43.308Z,112
2017-08-16T04:06:23.889Z,124
2017-08-16T04:07:04.482Z,132
2017-08-16T04:07:45.073Z,144
2017-08-16T04:08:25.661Z,152
2017-08-16T04:09:06.235Z,164
2017-08-16T04:09:46.822Z,172
2017-08-16T04:10:27.417Z,176
2017-08-16T04:11:08.004Z,180
2017-08-16T04:11:48.570Z,184
2017-08-16T04:12:29.157Z,188
2017-08-16T04:13:09.736Z,196
2017-08-16T04:13:50.321Z,204
2017-08-16T04:14:30.919Z,212
2017-08-16T04:15:11.517Z,212
2017-08-16T04:15:52.077Z,220
2017-08-16T04:16:32.644Z,224
2017-08-16T04:17:13.236Z,228
2017-08-16T04:17:53.814Z,236
2017-08-16T04:18:34.392Z,244
2017-08-16T04:19:14.967Z,260
2017-08-16T04:19:55.561Z,276
2017-08-16T04:20:36.155Z,292
2017-08-16T04:21:16.742Z,308
2017-08-16T04:21:57.332Z,320
2017-08-16T04:22:37.901Z,332
2017-08-16T04:23:18.481Z,340
2017-08-16T04:23:59.064Z,348
2017-08-16T04:24:39.661Z,348
2017-08-16T04:25:20.240Z,356
2017-08-16T04:26:00.814Z,368
2017-08-16T04:26:41.397Z,376
2017-08-16T04:27:22.012Z,396
2017-08-16T04:28:02.580Z,408
2017-08-16T04:28:43.148Z,432
2017-08-16T04:29:23.731Z,452
2017-08-16T04:30:04.310Z,480
2017-08-16T04:30:44.913Z,504
2017-08-16T04:31:25.471Z,544
2017-08-16T04:32:06.050Z,580
2017-08-16T04:32:46.616Z,624
2017-08-16T04:33:27.197Z,656
2017-08-16T04:34:07.777Z,688
2017-08-16T04:34:48.354Z,684
2017-08-16T04:35:28.931Z,676
2017-08-16T04:36:09.516Z,660
2017-08-16T04:36:50.132Z,628
2017-08-16T04:37:30.728Z,584
2017-08-16T04:38:11.308Z,552
2017-08-16T04:38:51.901Z,528
2017-08-16T04:39:32.476Z,520
2017-08-16T04:40:13.066Z,516
2017-08-16T04:40:53.624Z,524
2017-08-16T04:41:34.196Z,536
2017-08-16T04:42:14.761Z,544
2017-08-16T04:42:55.334Z,548
2017-08-16T04:43:35.905Z,544
2017-08-16T04:44:16.470Z,540
2017-08-16T04:44:57.043Z,544
2017-08-16T04:45:37.646Z,556
2017-08-16T04:46:18.246Z,568
2017-08-16T04:46:58.827Z,568
2017-08-16T04:47:39.455Z,556
2017-08-16T04:48:20.034Z,536
2017-08-16T04:49:00.615Z,512
2017-08-16T04:49:41.185Z,496
2017-08-16T04:50:21.764Z,484
2017-08-16T04:51:02.349Z,472
2017-08-16T04:51:42.927Z,472
2017-08-16T04:52:23.532Z,476
2017-08-16T04:53:04.089Z,488
2017-08-16T04:53:44.657Z,496
2017-08-16T04:54:25.224Z,512
2017-08-16T04:55:05.797Z,532
2017-08-16T04:55:46.379Z,548
2017-08-16T04:56:26.945Z,560
2017-08-16T04:57:07.539Z,576
2017-08-16T04:57:48.104Z,588
2017-08-16T04:58:28.687Z,600
2017-08-16T04:59:09.291Z,608
2017-08-16T04:59:49.864Z,624
2017-08-16T05:00:30.429Z,632
2017-08-16T05:01:11.037Z,632
2017-08-16T05:01:51.611Z,632
2017-08-16T05:02:32.200Z,632
2017-08-16T05:03:12.815Z,636
2017-08-16T05:03:53.364Z,640
2017-08-16T05:04:33.952Z,644
2017-08-16T05:05:14.514Z,652
2017-08-16T05:05:55.124Z,664
2017-08-16T05:06:35.686Z,676
2017-08-16T05:07:16.248Z,684
2017-08-16T05:07:56.822Z,696
2017-08-16T05:08:37.396Z,704
2017-08-16T05:09:17.984Z,720
2017-08-16T05:09:58.564Z,740
2017-08-16T05:10:39.148Z,752
2017-08-16T05:11:19.725Z,768
2017-08-16T05:12:00.314Z,780
2017-08-16T05:12:40.912Z,800
2017-08-16T05:13:21.492Z,832
2017-08-16T05:14:02.069Z,880
2017-08-16T05:14:42.668Z,928
2017-08-16T05:15:23.230Z,960
2017-08-16T05:16:03.813Z,956
2017-08-16T05:16:44.379Z,916
2017-08-16T05:17:24.949Z,848
2017-08-16T05:18:05.537Z,784
2017-08-16T05:18:46.117Z,740
2017-08-16T05:19:26.693Z,700
2017-08-16T05:20:07.274Z,668
2017-08-16T05:20:47.862Z,640
2017-08-16T05:21:28.425Z,616
2017-08-16T05:22:08.991Z,592
2017-08-16T05:22:49.560Z,568
2017-08-16T05:23:30.138Z,544
2017-08-16T05:24:10.715Z,528
2017-08-16T05:24:51.296Z,516
2017-08-16T05:25:31.864Z,500
2017-08-16T05:26:12.428Z,492
2017-08-16T05:26:53.014Z,480
2017-08-16T05:27:33.575Z,472
2017-08-16T05:28:14.167Z,464
2017-08-16T05:28:54.742Z,456
2017-08-16T05:29:35.320Z,448
2017-08-16T05:30:15.917Z,440
2017-08-16T05:30:56.490Z,436
2017-08-16T05:31:37.069Z,428
2017-08-16T05:32:17.643Z,424
2017-08-16T05:32:58.216Z,424
2017-08-16T05:33:38.798Z,424
2017-08-16T05:34:19.385Z,432
2017-08-16T05:34:59.962Z,444
2017-08-16T05:35:40.532Z,460
2017-08-16T05:36:21.125Z,484
2017-08-16T05:37:01.706Z,516
2017-08-16T05:37:42.278Z,556
2017-08-16T05:38:22.851Z,600
2017-08-16T05:39:03.440Z,640
2017-08-16T05:39:44.008Z,676
2017-08-16T05:40:24.595Z,708
2017-08-16T05:41:05.157Z,724
2017-08-16T05:41:45.733Z,744
2017-08-16T05:42:26.303Z,756
2017-08-16T05:43:06.873Z,768
2017-08-16T05:43:47.474Z,780
2017-08-16T05:44:28.057Z,792
2017-08-16T05:45:08.636Z,804
2017-08-16T05:45:49.233Z,816
2017-08-16T05:46:29.835Z,840
2017-08-16T05:47:10.400Z,856
2017-08-16T05:47:50.977Z,876
2017-08-16T05:48:31.562Z,896
2017-08-16T05:49:12.109Z,912
2017-08-16T05:49:52.692Z,924
2017-08-16T05:50:33.279Z,940
2017-08-16T05:51:13.848Z,960
2017-08-16T05:51:54.418Z,976
2017-08-16T05:52:34.999Z,996
2017-08-16T05:53:15.576Z,1008
2017-08-16T05:53:56.148Z,1032
2017-08-16T05:54:36.716Z,1048
2017-08-16T05:55:17.286Z,1064
2017-08-16T05:55:57.883Z,1076
2017-08-16T05:56:38.489Z,1080
2017-08-16T05:57:19.053Z,1084
2017-08-16T05:57:59.628Z,1080
2017-08-16T05:58:40.223Z,1080
2017-08-16T05:59:20.811Z,1104
2017-08-16T06:00:01.390Z,1112
2017-08-16T06:00:41.968Z,1116
2017-08-16T06:01:22.539Z,1116
2017-08-16T06:02:03.114Z,1120
2017-08-16T06:02:43.696Z,1116
2017-08-16T06:03:24.258Z,1092
2017-08-16T06:04:04.849Z,1068
2017-08-16T06:04:45.418Z,1052
2017-08-16T06:05:26.002Z,1036
2017-08-16T06:06:06.576Z,1012
2017-08-16T06:06:47.160Z,992
2017-08-16T06:07:27.734Z,976
2017-08-16T06:08:08.311Z,960
2017-08-16T06:08:48.903Z,944
2017-08-16T06:09:29.474Z,928
2017-08-16T06:10:10.072Z,916
2017-08-16T06:10:50.643Z,900
2017-08-16T06:11:31.220Z,884
2017-08-16T06:12:11.814Z,872
2017-08-16T06:12:52.400Z,860
2017-08-16T06:13:32.976Z,848
2017-08-16T06:14:13.579Z,836
2017-08-16T06:14:54.126Z,820
2017-08-16T06:15:34.720Z,808
2017-08-16T06:16:15.305Z,804
2017-08-16T06:16:55.878Z,800
2017-08-16T06:17:36.464Z,804
2017-08-16T06:18:17.043Z,804
2017-08-16T06:18:57.628Z,812
2017-08-16T06:19:38.200Z,812
2017-08-16T06:20:18.779Z,816
2017-08-16T06:20:59.396Z,820
2017-08-16T06:21:39.982Z,832
2017-08-16T06:22:20.555Z,844
2017-08-16T06:23:01.148Z,864
2017-08-16T06:23:41.721Z,888
2017-08-16T06:24:22.347Z,916
2017-08-16T06:25:02.921Z,948
2017-08-16T06:25:43.478Z,980
2017-08-16T06:26:24.048Z,1012
2017-08-16T06:27:04.619Z,1048
2017-08-16T06:27:45.199Z,1080
2017-08-16T06:28:25.786Z,1104
2017-08-16T06:29:06.354Z,1128
2017-08-16T06:29:46.956Z,1148
2017-08-16T06:30:27.530Z,1172
2017-08-16T06:31:08.139Z,1192
2017-08-16T06:31:48.720Z,1212
2017-08-16T06:32:29.286Z,1232
2017-08-16T06:33:09.876Z,1244
2017-08-16T06:33:50.449Z,1252
2017-08-16T06:34:31.028Z,1260
2017-08-16T06:35:11.604Z,1252
2017-08-16T06:35:52.191Z,1248
2017-08-16T06:36:32.765Z,1236
2017-08-16T06:37:13.338Z,1220
2017-08-16T06:37:53.922Z,1208
2017-08-16T06:38:34.506Z,1200
2017-08-16T06:39:15.091Z,1188
2017-08-16T06:39:55.659Z,1176
2017-08-16T06:40:36.240Z,1160
2017-08-16T06:41:16.821Z,1144
2017-08-16T06:41:57.389Z,1124
2017-08-16T06:42:37.976Z,1096
2017-08-16T06:43:18.561Z,1072
2017-08-16T06:43:59.158Z,1044
2017-08-16T06:44:39.767Z,1028
2017-08-16T06:45:20.353Z,1016
2017-08-16T06:46:00.922Z,1000
2017-08-16T06:46:41.495Z,988
2017-08-16T06:47:22.066Z,972
2017-08-16T06:48:02.630Z,956
2017-08-16T06:48:43.226Z,936
2017-08-16T06:49:23.803Z,920
2017-08-16T06:50:04.389Z,904
2017-08-16T06:50:44.963Z,892
2017-08-16T06:51:25.541Z,884
2017-08-16T06:52:06.136Z,876
2017-08-16T06:52:46.719Z,872
2017-08-16T06:53:27.307Z,872
2017-08-16T06:54:07.915Z,872
2017-08-16T06:54:48.480Z,868
2017-08-16T06:55:29.056Z,864
2017-08-16T06:56:09.652Z,868
2017-08-16T06:56:50.230Z,872
2017-08-16T06:57:30.813Z,884
2017-08-16T06:58:11.390Z,892
2017-08-16T06:58:51.981Z,912
2017-08-16T06:59:32.546Z,928
2017-08-16T07:00:13.151Z,948
2017-08-16T07:00:53.765Z,964
2017-08-16T07:01:34.336Z,984
2017-08-16T07:02:14.909Z,996
2017-08-16T07:02:55.499Z,1008
2017-08-16T07:03:36.069Z,1020
2017-08-16T07:04:16.640Z,1028
2017-08-16T07:04:57.216Z,1032
2017-08-16T07:05:37.784Z,1032
2017-08-16T07:06:18.354Z,1036
2017-08-16T07:06:58.966Z,1040
2017-08-16T07:07:39.539Z,1040
2017-08-16T07:08:20.114Z,1040
2017-08-16T07:09:00.728Z,1044
2017-08-16T07:09:41.322Z,1044
2017-08-16T07:10:21.926Z,1048
2017-08-16T07:11:02.517Z,1044
2017-08-16T07:11:43.092Z,1036
2017-08-16T07:12:23.674Z,1032
2017-08-16T07:13:04.255Z,1020
2017-08-16T07:13:44.838Z,1008
2017-08-16T07:14:25.425Z,996
2017-08-16T07:15:06.004Z,984
2017-08-16T07:15:46.583Z,976
2017-08-16T07:16:27.186Z,976
2017-08-16T07:17:07.773Z,976
2017-08-16T07:17:48.347Z,972
2017-08-16T07:18:28.952Z,968
2017-08-16T07:19:09.532Z,964
2017-08-16T07:19:50.097Z,960
2017-08-16T07:20:30.660Z,956
2017-08-16T07:21:11.237Z,952
2017-08-16T07:21:51.797Z,948
2017-08-16T07:22:32.376Z,948
2017-08-16T07:23:12.981Z,948
2017-08-16T07:23:53.579Z,952
2017-08-16T07:24:34.175Z,956
2017-08-16T07:25:14.775Z,960
2017-08-16T07:25:55.317Z,960
2017-08-16T07:26:35.913Z,960
2017-08-16T07:27:16.507Z,964
2017-08-16T07:27:57.089Z,960
2017-08-16T07:28:37.674Z,960
2017-08-16T07:29:18.265Z,952
2017-08-16T07:29:58.860Z,944
2017-08-16T07:30:39.477Z,936
2017-08-16T07:31:20.044Z,920
2017-08-16T07:32:00.617Z,916
2017-08-16T07:32:41.192Z,904
2017-08-16T07:33:21.764Z,896
2017-08-16T07:34:02.345Z,880
2017-08-16T07:34:42.922Z,872
2017-08-16T07:35:23.502Z,864
2017-08-16T07:36:04.062Z,852
2017-08-16T07:36:44.666Z,840
2017-08-16T07:37:25.240Z,836
2017-08-16T07:38:05.817Z,832
2017-08-16T07:38:46.419Z,816
2017-08-16T07:39:27.015Z,804
2017-08-16T07:40:07.584Z,796
2017-08-16T07:40:48.150Z,792
2017-08-16T07:41:28.721Z,780
2017-08-16T07:42:09.290Z,756
2017-08-16T07:42:49.847Z,748
2017-08-16T07:43:30.434Z,756
2017-08-16T07:44:11.021Z,752
2017-08-16T07:44:51.629Z,732
2017-08-16T07:45:32.212Z,716
2017-08-16T07:46:12.787Z,716
2017-08-16T07:46:53.344Z,708
2017-08-16T07:47:33.952Z,696
2017-08-16T07:48:14.533Z,696
2017-08-16T07:48:55.118Z,696
2017-08-16T07:49:35.734Z,692
2017-08-16T07:50:16.310Z,688
2017-08-16T07:50:56.923Z,676
2017-08-16T07:51:37.510Z,664
2017-08-16T07:52:18.107Z,644
2017-08-16T07:52:58.681Z,608
2017-08-16T07:53:39.292Z,556
2017-08-16T07:54:19.906Z,500
2017-08-16T07:55:00.481Z,456
2017-08-16T07:55:41.058Z,400
2017-08-16T07:56:21.651Z,352
2017-08-16T07:57:02.223Z,284
2017-08-16T07:57:42.829Z,240
2017-08-16T07:58:23.393Z,196
2017-08-16T07:59:03.984Z,168
2017-08-16T07:59:44.562Z,164
2017-08-16T08:00:25.143Z,148
2017-08-16T08:01:05.728Z,136
2017-08-16T08:01:46.312Z,132
2017-08-16T08:02:26.892Z,128
2017-08-16T08:03:07.483Z,132
2017-08-16T08:03:48.053Z,120
2017-08-16T08:04:28.643Z,136
2017-08-16T08:05:09.219Z,144
2017-08-16T08:05:49.816Z,160
2017-08-16T08:06:30.391Z,184
2017-08-16T08:07:10.983Z,212
2017-08-16T08:07:51.568Z,224
2017-08-16T08:08:32.151Z,224
2017-08-16T08:09:12.716Z,232
2017-08-16T08:09:53.279Z,248
2017-08-16T08:10:33.860Z,272
2017-08-16T08:11:14.430Z,300
2017-08-16T08:11:54.988Z,324
2017-08-16T08:12:35.564Z,336
2017-08-16T08:13:16.151Z,356
2017-08-16T08:13:56.725Z,376
2017-08-16T08:14:37.337Z,404
2017-08-16T08:15:17.918Z,436
2017-08-16T08:15:58.500Z,472
2017-08-16T08:16:39.078Z,480
2017-08-16T08:17:19.654Z,488
2017-08-16T08:18:00.252Z,496
2017-08-16T08:18:40.819Z,520
2017-08-16T08:19:21.403Z,560
2017-08-16T08:20:01.978Z,580
2017-08-16T08:20:42.538Z,592
2017-08-16T08:21:23.130Z,588
2017-08-16T08:22:03.703Z,584
2017-08-16T08:22:44.269Z,592
2017-08-16T08:23:24.838Z,580
2017-08-16T08:24:05.429Z,544
2017-08-16T08:24:46.009Z,560
2017-08-16T08:25:26.600Z,532
2017-08-16T08:26:07.160Z,544
2017-08-16T08:26:47.746Z,552
2017-08-16T08:27:28.316Z,540
2017-08-16T08:28:08.898Z,552
2017-08-16T08:28:49.488Z,572
2017-08-16T08:29:30.063Z,580
2017-08-16T08:30:10.782Z,604
2017-08-16T08:30:51.364Z,624
2017-08-16T08:31:31.928Z,640
2017-08-16T08:32:12.530Z,656
2017-08-16T08:32:53.110Z,676
2017-08-16T08:33:33.692Z,684
2017-08-16T08:34:14.287Z,696
2017-08-16T08:34:54.865Z,716
2017-08-16T08:35:35.434Z,740
2017-08-16T08:36:16.004Z,800
2017-08-16T08:36:56.583Z,808
2017-08-16T08:37:37.172Z,872
2017-08-16T08:38:17.752Z,924
2017-08-16T08:38:58.351Z,940
2017-08-16T08:39:38.969Z,964
2017-08-16T08:40:19.541Z,964
2017-08-16T08:41:00.131Z,972
2017-08-16T08:41:40.692Z,988
2017-08-16T08:42:21.268Z,992
2017-08-16T08:43:01.839Z,1008
2017-08-16T08:43:42.416Z,1012
2017-08-16T08:44:23.005Z,992
2017-08-16T08:45:03.594Z,1004
2017-08-16T08:45:44.188Z,936
2017-08-16T08:46:24.757Z,988
2017-08-16T08:47:05.326Z,1060
2017-08-16T08:47:45.916Z,1088
2017-08-16T08:48:26.504Z,1112
2017-08-16T08:49:07.099Z,1116
2017-08-16T08:49:47.694Z,1164
2017-08-16T08:50:28.260Z,1192
2017-08-16T08:51:08.834Z,1176
2017-08-16T08:51:49.400Z,1168
2017-08-16T08:52:29.976Z,1168
2017-08-16T08:53:10.560Z,1124
2017-08-16T08:53:51.141Z,1100
2017-08-16T08:54:31.714Z,1180
2017-08-16T08:55:12.302Z,1196
2017-08-16T08:55:52.880Z,1220
2017-08-16T08:56:33.470Z,1216
2017-08-16T08:57:14.048Z,1164
2017-08-16T08:57:54.626Z,1132
2017-08-16T08:58:35.263Z,1116
2017-08-16T08:59:15.832Z,1084
2017-08-16T08:59:56.402Z,1064
2017-08-16T09:00:36.970Z,1012
2017-08-16T09:01:17.566Z,1004
2017-08-16T09:01:58.149Z,1004
2017-08-16T09:02:38.706Z,1004
2017-08-16T09:03:19.278Z,1004
2017-08-16T09:03:59.852Z,996
2017-08-16T09:04:40.434Z,992
2017-08-16T09:05:21.014Z,980
2017-08-16T09:06:01.590Z,984
2017-08-16T09:06:42.175Z,984
2017-08-16T09:07:22.747Z,988
2017-08-16T09:08:03.325Z,984
2017-08-16T09:08:43.908Z,984
2017-08-16T09:09:24.486Z,992
2017-08-16T09:10:05.061Z,996
2017-08-16T09:10:45.638Z,984
2017-08-16T09:11:26.225Z,988
2017-08-16T09:12:06.782Z,1004
2017-08-16T09:12:47.349Z,1012
2017-08-16T09:13:27.919Z,1044
2017-08-16T09:14:08.498Z,1068
2017-08-16T09:14:49.069Z,1064
2017-08-16T09:15:29.639Z,1072
2017-08-16T09:16:10.217Z,1116
2017-08-16T09:16:50.798Z,1164
2017-08-16T09:17:31.377Z,1216
2017-08-16T09:18:11.968Z,1248
2017-08-16T09:18:52.553Z,1264
2017-08-16T09:19:33.134Z,1280
2017-08-16T09:20:13.723Z,1288
2017-08-16T09:20:54.304Z,1300
2017-08-16T09:21:34.882Z,1308
2017-08-16T09:22:15.457Z,1312
2017-08-16T09:22:56.029Z,1320
2017-08-16T09:23:36.613Z,1336
2017-08-16T09:24:17.199Z,1352
2017-08-16T09:24:57.800Z,1360
2017-08-16T09:25:38.378Z,1360
2017-08-16T09:26:18.955Z,1364
2017-08-16T09:26:59.557Z,1356
2017-08-16T09:27:40.143Z,1340
2017-08-16T09:28:20.715Z,1320
2017-08-16T09:29:01.294Z,1300
2017-08-16T09:29:44.469Z,1284
2017-08-16T09:30:25.189Z,1268
2017-08-16T09:31:05.764Z,1248
2017-08-16T09:31:46.380Z,1224